Time;durP1;ratioP1;P1;durP2;ratioP2;P2;SDS_P1;SDS_P2;PMS_P1;PMS_P2;Temp;Humidity;BMP_temperature;BMP_pressure;BME280_temperature;BME280_humidity;BME280_pressure;Samples;Min_cycle;Max_cycle;Signal;HPM_P1;HPM_P2
2022/07/20 00:02:11;;;;;;;5.78;2.72;;;;;;;24.92;44.69;101026.66;5064890;28;20044;-70
2022/07/20 00:04:37;;;;;;;4.78;2.90;;;;;;;24.88;44.60;101033.47;5061840;28;20036;-71
2022/07/20 00:07:02;;;;;;;5.93;3.10;;;;;;;24.81;44.63;101031.03;5044270;28;20588;-71
2022/07/20 00:12:12;;;;;;;7.50;2.92;;;;;;;24.73;44.88;101038.56;5055999;28;20035;-70
2022/07/20 00:14:37;;;;;;;5.35;3.15;;;;;;;24.67;44.82;101037.72;5063685;28;20735;-70
2022/07/20 00:17:03;;;;;;;3.80;2.83;;;;;;;24.62;44.59;101030.50;5040577;28;20016;-72
2022/07/20 00:19:28;;;;;;;6.78;3.15;;;;;;;24.49;44.83;101028.97;5065875;28;20051;-74
2022/07/20 00:21:54;;;;;;;6.50;3.25;;;;;;;24.36;45.12;101026.66;5061013;28;20028;-75
2022/07/20 00:24:20;;;;;;;7.65;2.55;;;;;;;24.24;45.71;101024.09;5060601;28;20039;-73
2022/07/20 00:26:45;;;;;;;8.48;3.00;;;;;;;24.16;45.81;101021.84;5060615;28;20086;-74
2022/07/20 00:29:11;;;;;;;5.10;2.80;;;;;;;24.07;45.95;101016.16;5061366;28;20118;-73
2022/07/20 00:31:36;;;;;;;9.73;3.80;;;;;;;24.01;45.95;101016.31;5057195;28;20032;-73
2022/07/20 00:34:02;;;;;;;8.35;2.83;;;;;;;23.93;46.11;101009.56;5055489;28;20029;-75
2022/07/20 00:36:27;;;;;;;4.05;2.78;;;;;;;23.88;45.97;101012.13;5056830;28;20097;-73
2022/07/20 00:38:53;;;;;;;5.60;3.22;;;;;;;23.87;45.84;101013.16;5068573;28;20028;-73
2022/07/20 00:41:18;;;;;;;5.60;3.38;;;;;;;23.86;45.79;101011.56;5065178;28;20507;-73
2022/07/20 00:43:55;;;;;;;6.35;3.15;;;;;;;23.85;45.64;101008.13;5043201;28;20055;-74
2022/07/20 00:46:21;;;;;;;5.85;3.45;;;;;;;23.84;45.60;101003.84;5060222;28;20044;-73
2022/07/20 00:48:47;;;;;;;4.95;3.15;;;;;;;23.83;45.28;101004.91;5064975;28;20064;-73
2022/07/20 00:51:12;;;;;;;5.80;3.08;;;;;;;23.78;45.07;100983.59;5048547;28;20070;-74
2022/07/20 00:53:38;;;;;;;4.68;2.90;;;;;;;23.71;44.87;100996.19;5060729;28;20052;-73
2022/07/20 00:56:04;;;;;;;5.13;3.47;;;;;;;23.68;44.96;100988.75;5065254;28;20113;-73
2022/07/20 00:58:30;;;;;;;5.43;2.90;;;;;;;23.64;44.88;100987.59;5045041;28;20051;-73
2022/07/20 01:00:55;;;;;;;4.82;2.95;;;;;;;23.60;45.06;100995.22;5040048;28;20025;-73
2022/07/20 01:03:21;;;;;;;6.13;2.95;;;;;;;23.59;45.20;100995.47;5037010;28;20591;-74
2022/07/20 01:05:46;;;;;;;5.85;3.42;;;;;;;23.60;45.09;100991.75;5039716;28;20048;-73
2022/07/20 01:08:12;;;;;;;6.88;3.38;;;;;;;23.65;44.03;100991.84;5037071;28;20041;-73
2022/07/20 01:10:37;;;;;;;6.07;3.35;;;;;;;23.56;44.03;100993.28;5058990;28;20016;-74
2022/07/20 01:13:03;;;;;;;10.68;3.33;;;;;;;23.48;43.16;100989.97;5055504;28;20064;-74
2022/07/20 01:15:28;;;;;;;8.60;3.70;;;;;;;23.47;43.90;100988.38;5040423;28;20029;-73
2022/07/20 01:17:54;;;;;;;6.68;2.67;;;;;;;23.43;44.23;100997.84;5058615;28;20393;-75
2022/07/20 01:20:24;;;;;;;7.28;3.78;;;;;;;23.39;44.29;101001.97;5039579;28;20029;-73
2022/07/20 01:22:49;;;;;;;5.78;2.97;;;;;;;23.33;43.88;100997.63;5063537;28;20637;-73
2022/07/20 01:25:15;;;;;;;9.10;3.50;;;;;;;23.31;43.71;100997.88;5053036;28;20086;-74
2022/07/20 01:27:41;;;;;;;8.93;4.50;;;;;;;23.36;42.77;100988.41;5049867;28;20044;-73
2022/07/20 01:30:07;;;;;;;8.18;3.88;;;;;;;23.39;41.99;100987.94;5042631;28;20027;-73
2022/07/20 01:32:33;;;;;;;5.78;3.00;;;;;;;23.43;41.94;100989.91;5062260;28;20047;-73
2022/07/20 01:34:58;;;;;;;9.35;3.53;;;;;;;23.42;42.06;100984.84;5057854;28;20040;-73
2022/07/20 01:37:24;;;;;;;8.55;3.83;;;;;;;23.52;41.76;100977.88;5057446;28;20284;-79
2022/07/20 01:39:50;;;;;;;9.80;4.18;;;;;;;23.52;41.58;100987.66;5025049;28;20040;-73
2022/07/20 01:42:16;;;;;;;8.73;3.72;;;;;;;23.57;41.34;100976.38;5063711;28;20040;-74
2022/07/20 01:44:41;;;;;;;10.18;3.70;;;;;;;23.60;41.47;100979.34;5045657;28;20102;-75
2022/07/20 01:47:07;;;;;;;8.13;3.20;;;;;;;23.61;41.21;100990.72;5061696;28;20103;-74
2022/07/20 01:49:32;;;;;;;9.77;3.67;;;;;;;23.69;41.09;100988.47;5061219;28;20400;-74
2022/07/20 01:51:58;;;;;;;5.78;3.42;;;;;;;23.64;40.96;100991.06;5043850;28;20044;-74
2022/07/20 01:54:23;;;;;;;7.85;3.58;;;;;;;23.69;41.13;100993.78;5064202;28;20028;-75
2022/07/20 01:56:48;;;;;;;5.90;3.75;;;;;;;23.67;40.87;100982.63;5040981;28;20441;-74
2022/07/20 01:59:14;;;;;;;7.78;3.20;;;;;;;23.75;40.62;100986.72;5060852;28;20041;-73
2022/07/20 02:01:39;;;;;;;9.80;3.22;;;;;;;23.69;41.10;100985.81;5046690;28;20071;-73
2022/07/20 02:04:06;;;;;;;10.32;3.63;;;;;;;23.74;40.66;100986.97;5062594;28;20054;-74
2022/07/20 02:06:31;;;;;;;14.82;4.47;;;;;;;23.73;40.69;100988.81;5060293;28;20032;-75
2022/07/20 02:08:57;;;;;;;7.30;3.42;;;;;;;23.74;40.77;100989.63;5043283;28;20036;-74
2022/07/20 02:11:23;;;;;;;10.65;4.05;;;;;;;23.81;40.61;100985.81;5060948;28;20407;-74
2022/07/20 02:13:48;;;;;;;6.63;3.22;;;;;;;23.75;40.58;100985.94;5063066;28;20032;-72
2022/07/20 02:16:17;;;;;;;8.90;4.55;;;;;;;23.75;40.57;100977.97;5060962;28;20029;-73
2022/07/20 02:18:51;;;;;;;11.48;3.25;;;;;;;23.86;40.38;100977.94;5064293;28;20032;-73
2022/07/20 02:21:19;;;;;;;11.02;3.78;;;;;;;23.86;40.22;100977.94;5064905;28;20035;-75
2022/07/20 02:23:45;;;;;;;11.80;4.25;;;;;;;23.78;40.63;100972.22;5051213;28;20067;-73
2022/07/20 02:26:11;;;;;;;12.38;3.88;;;;;;;23.80;40.44;100968.31;5047871;28;20102;-74
2022/07/20 02:28:37;;;;;;;6.60;3.20;;;;;;;23.86;40.63;100969.19;5054475;28;20060;-74
2022/07/20 02:31:05;;;;;;;7.10;3.25;;;;;;;23.78;40.92;100958.97;5054574;28;20031;-74
2022/07/20 02:33:30;;;;;;;10.45;3.60;;;;;;;23.74;40.86;100968.44;5046328;28;20561;-73
2022/07/20 02:35:56;;;;;;;6.95;3.38;;;;;;;23.76;40.95;100969.00;5064806;28;20028;-74
2022/07/20 02:38:22;;;;;;;7.30;2.90;;;;;;;23.73;40.90;100972.13;5067332;28;20128;-74
2022/07/20 02:40:48;;;;;;;9.88;3.78;;;;;;;23.60;41.25;100981.16;5062738;28;20074;-75
2022/07/20 02:43:13;;;;;;;10.23;4.03;;;;;;;23.54;41.21;101000.66;5065648;28;20501;-74
2022/07/20 02:45:39;;;;;;;6.47;4.18;;;;;;;23.51;41.97;101015.16;5065862;28;20040;-74
2022/07/20 02:48:04;;;;;;;7.40;3.47;;;;;;;23.51;41.88;101001.94;5061506;28;20045;-74
2022/07/20 02:50:33;;;;;;;7.75;3.25;;;;;;;23.48;41.46;101016.44;5045106;28;20373;-73
2022/07/20 02:52:59;;;;;;;8.77;3.28;;;;;;;23.52;40.91;101024.69;5054339;28;20807;-73
2022/07/20 02:55:25;;;;;;;9.57;3.58;;;;;;;23.47;41.60;101028.06;5066116;28;20040;-74
2022/07/20 02:57:51;;;;;;;9.82;2.83;;;;;;;23.43;42.26;101045.47;5040175;28;20074;-73
2022/07/20 03:00:17;;;;;;;7.15;3.28;;;;;;;23.39;43.45;101056.72;5030803;28;20117;-74
2022/07/20 03:02:43;;;;;;;9.40;3.47;;;;;;;23.26;43.21;101058.63;5029721;28;20083;-73
2022/07/20 03:05:08;;;;;;;7.63;3.60;;;;;;;23.31;42.71;101052.63;5064371;28;20044;-73
2022/07/20 03:07:34;;;;;;;8.23;3.10;;;;;;;23.22;43.41;101062.75;5060442;28;20082;-73
2022/07/20 03:09:59;;;;;;;7.10;3.08;;;;;;;23.16;43.34;101054.97;5062013;28;20032;-75
2022/07/20 03:12:25;;;;;;;8.07;3.15;;;;;;;23.15;43.31;101064.75;5047140;28;20032;-74
2022/07/20 03:14:51;;;;;;;7.03;3.30;;;;;;;23.15;43.39;101058.63;5046094;28;20059;-73
2022/07/20 03:17:17;;;;;;;5.95;3.10;;;;;;;23.13;43.57;101061.50;5064050;28;20044;-74
2022/07/20 03:19:43;;;;;;;9.93;3.60;;;;;;;23.04;44.27;101052.34;5066073;28;20028;-73
2022/07/20 03:22:08;;;;;;;8.63;3.47;;;;;;;22.92;45.04;101050.50;5071111;28;20028;-73
2022/07/20 03:24:34;;;;;;;5.88;3.13;;;;;;;22.89;45.33;101048.31;5045964;28;20044;-74
2022/07/20 03:26:59;;;;;;;8.15;3.10;;;;;;;22.87;45.36;101052.22;5043803;28;20383;-74
2022/07/20 03:29:25;;;;;;;7.63;3.35;;;;;;;22.82;46.07;101047.63;5061927;28;20052;-74
2022/07/20 03:31:50;;;;;;;4.30;2.83;;;;;;;22.80;46.15;101046.25;5065143;28;20032;-73
2022/07/20 03:34:16;;;;;;;7.75;3.20;;;;;;;22.80;46.05;101056.81;5063203;28;20032;-73
2022/07/20 03:36:41;;;;;;;7.72;3.30;;;;;;;22.74;46.50;101051.41;5062299;28;20632;-73
2022/07/20 03:39:07;;;;;;;6.60;3.20;;;;;;;22.73;46.82;101056.94;5061745;28;20394;-73
2022/07/20 03:41:32;;;;;;;6.60;2.95;;;;;;;22.72;46.61;101068.56;5061836;28;20040;-74
2022/07/20 03:43:58;;;;;;;11.52;3.85;;;;;;;22.70;46.77;101067.97;5043671;28;20029;-73
2022/07/20 03:46:23;;;;;;;5.80;3.00;;;;;;;22.69;47.12;101087.50;5060579;28;20040;-74
2022/07/20 03:48:49;;;;;;;9.20;3.47;;;;;;;22.68;46.92;101080.63;5063382;28;20123;-74
2022/07/20 03:51:14;;;;;;;6.80;3.60;;;;;;;22.67;47.04;101081.63;5041803;28;20033;-74
2022/07/20 03:53:40;;;;;;;7.20;3.00;;;;;;;22.66;46.89;101080.03;5042021;28;20235;-73
2022/07/20 03:56:05;;;;;;;5.30;3.25;;;;;;;22.60;47.45;101091.50;5063214;28;20043;-74
2022/07/20 03:58:31;;;;;;;8.30;3.50;;;;;;;22.54;47.43;101095.88;5059824;28;20090;-74
2022/07/20 04:00:56;;;;;;;8.23;3.80;;;;;;;22.49;47.59;101096.56;5059817;28;20077;-73
2022/07/20 04:03:22;;;;;;;11.35;4.22;;;;;;;22.45;47.32;101090.13;5063549;28;20028;-73
2022/07/20 04:05:47;;;;;;;10.15;3.58;;;;;;;22.32;48.12;101092.97;5053902;28;20040;-73
2022/07/20 04:08:13;;;;;;;9.27;3.80;;;;;;;22.21;49.20;101101.63;5062359;28;20032;-73
2022/07/20 04:10:38;;;;;;;9.10;3.80;;;;;;;22.16;49.45;101104.97;5045254;28;20028;-74
2022/07/20 04:13:05;;;;;;;11.38;3.88;;;;;;;22.16;49.36;101118.97;5062466;28;20063;-74
2022/07/20 04:15:30;;;;;;;10.45;4.35;;;;;;;22.15;48.13;101117.38;5060574;28;20099;-73
2022/07/20 04:17:56;;;;;;;10.98;3.45;;;;;;;22.18;46.82;101118.75;5042694;28;20641;-73
2022/07/20 04:20:22;;;;;;;16.02;5.13;;;;;;;22.34;45.65;101128.69;5061115;28;20093;-73
2022/07/20 04:22:47;;;;;;;7.63;4.00;;;;;;;22.41;45.58;101133.06;5062391;28;20028;-73
2022/07/20 04:25:13;;;;;;;8.05;4.20;;;;;;;22.39;45.86;101138.56;5064383;28;20028;-74
2022/07/20 04:27:38;;;;;;;12.32;4.40;;;;;;;22.44;46.42;101144.00;5043038;28;20024;-73
2022/07/20 04:30:04;;;;;;;14.13;4.97;;;;;;;22.48;46.50;101152.28;5058444;28;20395;-74
2022/07/20 04:32:30;;;;;;;8.13;4.43;;;;;;;22.43;46.42;101149.50;5046151;28;20067;-73
2022/07/20 04:34:56;;;;;;;13.18;5.80;;;;;;;22.43;47.10;101152.94;5060462;28;20032;-72
2022/07/20 04:37:21;;;;;;;11.10;5.30;;;;;;;22.50;47.13;101163.41;5059632;28;20035;-74
2022/07/20 04:39:47;;;;;;;14.55;6.10;;;;;;;22.53;47.51;101168.25;5042242;28;20041;-73
2022/07/20 04:42:13;;;;;;;13.07;5.93;;;;;;;22.53;47.58;101184.91;5055390;28;20031;-75
2022/07/20 04:44:38;;;;;;;11.43;5.60;;;;;;;22.56;47.71;101186.28;5040558;28;20040;-75
2022/07/20 04:47:04;;;;;;;14.45;6.70;;;;;;;22.70;48.29;101192.19;5054295;28;20070;-76
2022/07/20 04:49:29;;;;;;;20.45;8.45;;;;;;;22.62;48.83;101192.50;5058033;28;20115;-74
2022/07/20 04:51:55;;;;;;;18.75;8.18;;;;;;;22.66;49.24;101191.00;5040351;28;20043;-78
2022/07/20 04:54:21;;;;;;;16.25;8.73;;;;;;;22.62;50.08;101188.03;5028093;28;20037;-74
2022/07/20 04:56:47;;;;;;;19.50;9.07;;;;;;;22.67;50.32;101188.16;5039527;28;20085;-74
2022/07/20 04:59:13;;;;;;;21.55;8.90;;;;;;;22.77;50.80;101194.72;5039180;28;20482;-72
2022/07/20 05:01:39;;;;;;;18.15;9.02;;;;;;;22.83;51.08;101214.94;5058098;28;20042;-73
2022/07/20 05:04:04;;;;;;;20.50;10.30;;;;;;;22.88;51.18;101210.59;5038418;28;20067;-77
2022/07/20 05:06:29;;;;;;;22.02;10.25;;;;;;;22.85;52.12;101212.88;5026691;28;20144;-75
2022/07/20 05:08:55;;;;;;;21.77;10.93;;;;;;;22.90;52.50;101208.50;5042083;28;20029;-75
2022/07/20 05:11:20;;;;;;;19.92;11.90;;;;;;;23.05;53.37;101223.16;5058135;28;20493;-73
2022/07/20 05:13:46;;;;;;;23.77;11.82;;;;;;;23.06;53.55;101220.31;5060767;28;20098;-74
2022/07/20 05:16:12;;;;;;;27.15;12.43;;;;;;;23.08;53.80;101220.06;5052506;28;20100;-74
2022/07/20 05:18:38;;;;;;;25.65;13.70;;;;;;;23.19;54.27;101226.38;5035160;28;20152;-74
2022/07/20 05:21:04;;;;;;;32.40;14.57;;;;;;;23.27;54.62;101228.72;5042355;28;20041;-72
2022/07/20 05:23:29;;;;;;;30.33;15.48;;;;;;;23.31;55.08;101235.13;5060846;28;20086;-74
2022/07/20 05:25:55;;;;;;;26.77;13.55;;;;;;;23.44;55.21;101223.53;5054197;28;20036;-72
2022/07/20 05:28:21;;;;;;;36.65;16.80;;;;;;;23.54;55.15;101236.16;5041725;28;20051;-72
2022/07/20 05:30:48;;;;;;;25.83;15.10;;;;;;;23.52;55.19;101228.44;5061551;28;20056;-75
2022/07/20 05:33:13;;;;;;;33.55;16.05;;;;;;;23.59;56.04;101228.34;5025489;28;20051;-73
2022/07/20 05:35:39;;;;;;;35.17;15.93;;;;;;;23.73;55.55;101236.81;5059304;28;20520;-73
2022/07/20 05:38:04;;;;;;;26.05;15.65;;;;;;;23.76;55.20;101234.53;5038192;28;20033;-73
2022/07/20 05:40:30;;;;;;;26.67;15.90;;;;;;;23.81;55.14;101239.97;5056618;28;20036;-74
2022/07/20 05:42:56;;;;;;;27.45;15.02;;;;;;;23.94;55.14;101248.66;5024189;28;20028;-75
2022/07/20 05:45:21;;;;;;;30.52;16.35;;;;;;;24.03;55.01;101249.91;5057925;28;20025;-77
2022/07/20 05:47:46;;;;;;;31.23;15.90;;;;;;;24.18;54.91;101247.56;5060939;28;20704;-72
2022/07/20 05:50:12;;;;;;;25.77;15.70;;;;;;;24.32;54.58;101249.91;5060221;28;20027;-73
2022/07/20 05:52:37;;;;;;;32.35;15.70;;;;;;;24.39;54.78;101253.22;5060762;28;20056;-73
2022/07/20 05:55:04;;;;;;;23.80;14.77;;;;;;;24.53;54.36;101253.78;5046635;28;20032;-72
2022/07/20 05:57:29;;;;;;;25.98;16.40;;;;;;;24.72;53.97;101270.28;5061200;28;20032;-74
2022/07/20 05:59:54;;;;;;;27.70;14.88;;;;;;;24.87;53.45;101267.88;5056313;28;20504;-75
2022/07/20 06:02:20;;;;;;;28.13;16.20;;;;;;;25.11;52.14;101270.38;5041581;28;20040;-74
2022/07/20 06:04:45;;;;;;;25.10;16.08;;;;;;;25.28;52.11;101288.97;5063899;28;20040;-73
2022/07/20 06:07:11;;;;;;;48.85;17.00;;;;;;;25.39;51.74;101288.06;5044639;28;21685;-73
2022/07/20 06:09:36;;;;;;;28.27;16.08;;;;;;;25.67;51.08;101292.44;5063450;28;20017;-73
2022/07/20 06:12:02;;;;;;;27.45;15.13;;;;;;;25.77;50.97;101287.28;5041957;28;20043;-74
2022/07/20 06:14:28;;;;;;;27.48;15.63;;;;;;;25.89;50.69;101289.81;5062390;28;20036;-72
2022/07/20 06:16:53;;;;;;;24.38;15.30;;;;;;;26.20;50.10;101288.38;5042728;28;20041;-71
2022/07/20 06:19:19;;;;;;;24.77;14.80;;;;;;;26.31;50.67;101296.44;5059513;28;20047;-70
2022/07/20 06:21:44;;;;;;;25.13;16.15;;;;;;;25.97;50.71;101315.97;5045534;28;20170;-70
2022/07/20 06:24:10;;;;;;;26.50;15.02;;;;;;;25.76;51.31;101314.09;5046040;28;20036;-69
2022/07/20 06:26:35;;;;;;;26.85;16.85;;;;;;;25.68;51.43;101311.84;5063717;28;20020;-73
2022/07/20 06:29:01;;;;;;;26.48;15.18;;;;;;;26.03;50.60;101319.50;5066517;28;20044;-73
2022/07/20 06:31:26;;;;;;;36.97;17.85;;;;;;;26.40;49.86;101311.69;5047841;28;20032;-73
2022/07/20 06:33:52;;;;;;;24.30;15.85;;;;;;;26.62;49.62;101324.19;5043806;28;20051;-72
2022/07/20 06:36:18;;;;;;;30.05;15.88;;;;;;;26.89;49.02;101334.00;5042141;28;20037;-73
2022/07/20 06:38:44;;;;;;;24.83;15.15;;;;;;;26.83;49.33;101343.00;5060003;28;20037;-72
2022/07/20 06:41:10;;;;;;;31.63;16.65;;;;;;;26.60;49.63;101361.66;5032455;28;20119;-73
2022/07/20 06:43:35;;;;;;;30.08;15.68;;;;;;;26.32;50.28;101359.97;5047782;28;20036;-74
2022/07/20 06:46:00;;;;;;;28.77;16.10;;;;;;;26.29;50.09;101362.31;5057810;28;20037;-73
2022/07/20 06:48:26;;;;;;;28.73;16.67;;;;;;;26.10;50.49;101372.47;5060766;28;20043;-74
2022/07/20 06:50:51;;;;;;;37.33;20.60;;;;;;;26.16;50.81;101366.16;5047580;28;20082;-78
2022/07/20 06:53:17;;;;;;;33.22;16.98;;;;;;;25.99;50.68;101379.47;5046555;28;20036;-72
2022/07/20 06:55:43;;;;;;;30.48;16.95;;;;;;;26.30;50.47;101390.53;5067598;28;20058;-77
2022/07/20 06:58:08;;;;;;;23.75;15.57;;;;;;;26.47;49.92;101377.16;5061593;28;20036;-74
2022/07/20 07:00:34;;;;;;;30.98;16.13;;;;;;;26.41;49.87;101389.59;5042149;28;20113;-74
2022/07/20 07:02:59;;;;;;;30.85;15.88;;;;;;;26.37;50.17;101407.06;5049057;28;20024;-73
2022/07/20 07:05:25;;;;;;;28.77;16.58;;;;;;;26.41;50.05;101403.69;5063774;28;20044;-77
2022/07/20 07:07:50;;;;;;;27.13;17.02;;;;;;;26.14;50.10;101411.56;5029183;28;20052;-74
2022/07/20 07:10:16;;;;;;;29.23;15.38;;;;;;;26.23;50.83;101418.06;5061090;28;20029;-76
2022/07/20 07:12:41;;;;;;;24.20;16.45;;;;;;;26.22;50.03;101419.13;5063709;28;20866;-72
2022/07/20 07:15:07;;;;;;;24.60;16.85;;;;;;;26.28;49.98;101421.88;5046966;28;20083;-74
2022/07/20 07:17:33;;;;;;;33.25;17.55;;;;;;;26.44;48.37;101420.19;5026864;28;20036;-76
2022/07/20 07:19:59;;;;;;;26.20;15.77;;;;;;;26.78;47.87;101439.50;5031104;28;20467;-77
2022/07/20 07:22:26;;;;;;;23.63;15.63;;;;;;;27.15;46.71;101425.50;5029332;28;20039;-75
2022/07/20 07:24:52;;;;;;;30.15;15.40;;;;;;;27.10;46.64;101433.44;5056542;28;20039;-73
2022/07/20 07:27:17;;;;;;;27.02;16.80;;;;;;;27.18;46.88;101440.94;5062584;28;21370;-77
2022/07/20 07:29:43;;;;;;;25.30;15.30;;;;;;;27.16;46.94;101443.88;5047183;28;20493;-75
2022/07/20 07:32:08;;;;;;;24.83;14.57;;;;;;;27.08;46.21;101446.19;5060231;28;20028;-73
2022/07/20 07:34:34;;;;;;;25.98;14.70;;;;;;;27.06;46.15;101448.31;5033546;28;20090;-74
2022/07/20 07:36:59;;;;;;;24.27;14.77;;;;;;;27.22;46.25;101450.06;5064788;28;20032;-74
2022/07/20 07:39:25;;;;;;;23.73;14.63;;;;;;;27.15;46.17;101458.22;5063462;28;20463;-76
2022/07/20 07:41:51;;;;;;;27.13;13.70;;;;;;;27.25;46.97;101457.56;5043186;28;20040;-76
2022/07/20 07:44:16;;;;;;;29.90;14.88;;;;;;;27.12;47.31;101452.63;5060798;28;20066;-75
2022/07/20 07:46:42;;;;;;;28.77;14.88;;;;;;;27.71;46.22;101459.81;5058813;28;20041;-73
2022/07/20 07:49:07;;;;;;;19.83;13.43;;;;;;;27.99;44.99;101461.38;5046299;28;20043;-76
2022/07/20 07:51:33;;;;;;;24.27;13.48;;;;;;;28.28;45.05;101464.47;5040672;28;20052;-74
2022/07/20 07:53:58;;;;;;;32.05;14.30;;;;;;;28.69;43.89;101474.53;5063214;28;20394;-74
2022/07/20 07:56:24;;;;;;;25.55;14.07;;;;;;;29.11;42.91;101478.91;5049618;28;20036;-74
2022/07/20 07:58:49;;;;;;;30.25;14.82;;;;;;;29.44;42.38;101490.19;5065923;28;20054;-76
2022/07/20 08:01:15;;;;;;;23.85;15.07;;;;;;;29.80;42.40;101474.16;5060656;28;20052;-76
2022/07/20 08:03:41;;;;;;;18.55;13.35;;;;;;;30.20;41.52;101475.19;5043765;28;20514;-74
2022/07/20 08:06:06;;;;;;;23.00;14.43;;;;;;;30.06;40.70;101481.09;5061875;28;20063;-75
2022/07/20 08:08:32;;;;;;;28.20;14.00;;;;;;;29.72;41.62;101485.38;5043574;28;22462;-74
2022/07/20 08:10:58;;;;;;;25.02;14.88;;;;;;;28.77;43.06;101487.38;5059422;28;20029;-73
2022/07/20 08:13:24;;;;;;;27.98;14.40;;;;;;;28.40;43.39;101493.56;5063356;28;20032;-74
2022/07/20 08:15:50;;;;;;;29.83;14.15;;;;;;;27.88;44.42;101496.97;5063739;28;20619;-76
2022/07/20 08:18:15;;;;;;;22.13;13.57;;;;;;;27.80;45.43;101511.53;5066077;28;20032;-75
2022/07/20 08:20:41;;;;;;;22.75;13.27;;;;;;;27.54;46.36;101514.00;5039428;28;20567;-74
2022/07/20 08:23:06;;;;;;;24.88;13.82;;;;;;;27.45;45.57;101512.06;5063634;28;20067;-75
2022/07/20 08:25:32;;;;;;;27.83;13.13;;;;;;;27.67;45.19;101515.47;5044435;28;20085;-74
2022/07/20 08:28:14;;;;;;;25.17;13.07;;;;;;;28.26;44.55;101524.44;5046084;28;20041;-74
2022/07/20 08:30:42;;;;;;;20.98;12.38;;;;;;;28.86;44.37;101525.03;5050858;28;20036;-75
2022/07/20 08:33:07;;;;;;;29.17;13.82;;;;;;;29.28;43.36;101522.22;5056621;28;20029;-74
2022/07/20 08:35:33;;;;;;;37.95;17.20;;;;;;;29.14;43.86;101521.13;5064729;28;20433;-75
2022/07/20 08:37:59;;;;;;;21.80;13.95;;;;;;;28.86;44.61;101523.16;5058903;28;20485;-72
2022/07/20 08:40:25;;;;;;;27.15;14.95;;;;;;;28.46;45.45;101505.06;5050731;28;20028;-73
2022/07/20 08:42:51;;;;;;;29.77;15.35;;;;;;;28.31;44.87;101490.63;5041389;28;20754;-76
2022/07/20 08:45:17;;;;;;;28.17;13.98;;;;;;;29.05;43.74;101479.97;5039638;28;20067;-78
2022/07/20 08:47:44;;;;;;;24.58;13.30;;;;;;;28.97;43.69;101488.47;5057960;28;20141;-73
2022/07/20 08:50:10;;;;;;;22.27;13.15;;;;;;;29.13;43.76;101492.84;5058303;28;20029;-74
2022/07/20 08:52:35;;;;;;;27.52;14.68;;;;;;;28.77;44.24;101490.03;5060401;28;20035;-74
2022/07/20 08:55:01;;;;;;;23.77;13.32;;;;;;;29.22;44.00;101485.13;5045959;28;20087;-75
2022/07/20 08:57:26;;;;;;;24.02;13.27;;;;;;;29.46;43.52;101496.06;5043555;28;20374;-76
2022/07/20 08:59:52;;;;;;;23.25;14.48;;;;;;;29.99;42.59;101488.59;5066087;28;20033;-75
2022/07/20 09:02:18;;;;;;;21.65;13.02;;;;;;;30.38;41.42;101482.63;5044180;28;20045;-78
2022/07/20 09:04:51;;;;;;;27.90;14.55;;;;;;;30.69;41.81;101461.09;5043193;28;20033;-73
2022/07/20 09:07:18;;;;;;;23.70;13.18;;;;;;;30.99;41.24;101443.28;5037544;28;20036;-74
2022/07/20 09:09:43;;;;;;;24.30;12.82;;;;;;;30.67;41.00;101453.34;5041167;28;20044;-74
2022/07/20 09:12:08;;;;;;;21.05;12.77;;;;;;;30.06;41.36;101459.72;5045815;28;20028;-74
2022/07/20 09:14:47;;;;;;;22.20;12.63;;;;;;;29.83;42.35;101438.91;5046340;28;20033;-77
2022/07/20 09:17:22;;;;;;;23.00;12.43;;;;;;;29.52;42.36;101412.22;5058840;28;20044;-74
2022/07/20 09:20:08;;;;;;;26.38;13.27;;;;;;;28.99;43.54;101399.09;5074369;28;20082;-74
2022/07/20 09:22:38;;;;;;;21.52;13.10;;;;;;;28.69;44.50;101389.19;5049980;28;20064;-75
2022/07/20 09:25:13;;;;;;;24.70;12.73;;;;;;;28.51;45.02;101401.09;5062404;28;20033;-74
2022/07/20 09:27:39;;;;;;;24.00;13.52;;;;;;;28.23;45.74;101402.31;5057148;28;20379;-74
2022/07/20 09:30:10;;;;;;;24.63;13.52;;;;;;;28.25;45.67;101387.66;5066804;28;20062;-74
2022/07/20 09:32:57;;;;;;;22.20;13.25;;;;;;;28.28;45.42;101402.34;5049036;28;20028;-72
2022/07/20 09:35:27;;;;;;;30.00;15.75;;;;;;;28.63;45.35;101433.72;5062791;28;20685;-73
2022/07/20 09:37:55;;;;;;;23.90;15.07;;;;;;;28.85;45.33;101468.16;5067657;28;20051;-75
2022/07/20 09:40:21;;;;;;;26.02;13.30;;;;;;;29.19;44.71;101481.09;5068291;28;20032;-73
2022/07/20 09:42:47;;;;;;;19.85;13.10;;;;;;;29.38;44.79;101493.94;5063520;28;20088;-74
2022/07/20 09:45:28;;;;;;;21.52;12.60;;;;;;;29.56;45.18;101506.75;5064532;28;20418;-74
2022/07/20 09:48:09;;;;;;;20.65;11.05;;;;;;;29.98;43.50;101531.63;5060454;28;20092;-75
2022/07/20 09:50:37;;;;;;;17.15;11.10;;;;;;;30.24;42.30;101514.47;5054214;28;20488;-75
2022/07/20 09:53:04;;;;;;;18.63;10.98;;;;;;;30.51;41.57;101509.88;5068284;28;20036;-76
2022/07/20 09:55:31;;;;;;;19.27;11.73;;;;;;;30.42;41.93;101518.47;5043481;28;20040;-74
2022/07/20 09:57:57;;;;;;;18.63;10.93;;;;;;;30.08;42.01;101521.72;5064630;28;20032;-74
2022/07/20 10:00:23;;;;;;;14.10;9.82;;;;;;;30.03;41.86;101518.25;5061855;28;20039;-74
2022/07/20 10:02:50;;;;;;;21.20;10.50;;;;;;;30.24;42.24;101521.69;5042936;28;21317;-75
2022/07/20 10:05:19;;;;;;;16.70;10.48;;;;;;;30.63;41.13;101523.75;5043745;28;20040;-71
2022/07/20 10:07:45;;;;;;;16.98;9.48;;;;;;;30.73;40.01;101501.50;5051286;28;20689;-69
2022/07/20 10:10:11;;;;;;;20.77;10.30;;;;;;;31.20;39.65;101502.84;5059609;28;20060;-72
2022/07/20 10:12:37;;;;;;;16.60;9.07;;;;;;;31.53;38.90;101495.94;5056910;28;20029;-71
2022/07/20 10:15:10;;;;;;;14.52;8.70;;;;;;;31.84;38.45;101494.88;5062763;28;20090;-73
2022/07/20 10:17:38;;;;;;;15.27;8.50;;;;;;;31.68;37.55;101495.00;5044343;28;20534;-71
2022/07/20 10:20:07;;;;;;;12.52;7.90;;;;;;;31.78;38.04;101497.59;5041211;28;20501;-74
2022/07/20 10:22:33;;;;;;;11.68;7.20;;;;;;;31.89;38.04;101514.38;5041773;28;20801;-74
2022/07/20 10:25:18;;;;;;;16.17;7.65;;;;;;;31.83;37.19;101526.22;5042481;28;20549;-78
2022/07/20 10:27:43;;;;;;;13.30;7.35;;;;;;;31.61;38.02;101529.38;5040561;28;20043;-76
2022/07/20 10:30:17;;;;;;;12.13;7.35;;;;;;;30.82;38.13;101529.28;5044579;28;20040;-78
2022/07/20 10:32:56;;;;;;;11.63;7.35;;;;;;;30.38;39.15;101520.06;5047906;28;20197;-78
2022/07/20 10:35:30;;;;;;;17.30;8.68;;;;;;;30.17;39.26;101518.50;5041194;28;20437;-77
2022/07/20 10:37:57;;;;;;;11.80;6.85;;;;;;;30.18;39.80;101514.75;5043818;28;20062;-78
2022/07/20 10:40:25;;;;;;;13.57;6.72;;;;;;;30.34;39.13;101516.34;5042246;28;20039;-75
2022/07/20 10:43:09;;;;;;;12.65;7.10;;;;;;;30.73;38.61;101520.22;5022599;28;20072;-77
2022/07/20 10:45:35;;;;;;;14.38;6.93;;;;;;;31.31;37.54;101514.31;5028638;28;20777;-76
2022/07/20 10:48:11;;;;;;;13.77;6.80;;;;;;;31.33;38.09;101512.16;5043245;28;20028;-75
2022/07/20 10:50:40;;;;;;;10.25;6.00;;;;;;;31.44;37.55;101511.78;5028110;28;20035;-76
2022/07/20 10:53:09;;;;;;;12.45;6.32;;;;;;;31.76;37.30;101523.88;5030626;28;20754;-78
2022/07/20 10:55:34;;;;;;;13.60;6.60;;;;;;;31.69;37.00;101511.88;5015360;28;20078;-78
2022/07/20 10:58:08;;;;;;;12.95;6.03;;;;;;;31.55;36.91;101514.41;5025715;28;20036;-77
2022/07/20 11:01:06;;;;;;;13.10;7.45;;;;;;;31.69;36.46;101506.53;5022467;28;20118;-76
2022/07/20 11:03:37;;;;;;;12.20;5.78;;;;;;;31.88;37.08;101496.69;5013672;28;20065;-76
2022/07/20 11:06:16;;;;;;;10.38;5.72;;;;;;;32.09;36.38;101489.25;5024436;28;20111;-75
2022/07/20 11:09:02;;;;;;;6.60;4.80;;;;;;;32.00;35.20;101481.03;5039756;28;20109;-75
2022/07/20 11:11:30;;;;;;;11.52;5.90;;;;;;;32.09;35.17;101489.25;5017992;28;20110;-78
2022/07/20 11:13:56;;;;;;;7.00;4.32;;;;;;;32.08;34.41;101506.44;5026524;28;20721;-75
2022/07/20 11:16:24;;;;;;;7.57;4.43;;;;;;;32.22;33.99;101489.66;5045889;28;20039;-78
2022/07/20 11:18:51;;;;;;;5.03;3.80;;;;;;;32.25;33.38;101489.09;5029182;28;20580;-78